Time;durP1;ratioP1;P1;durP2;ratioP2;P2;SDS_P1;SDS_P2;PMS_P1;PMS_P2;Temp;Humidity;BMP_temperature;BMP_pressure;BME280_temperature;BME280_humidity;BME280_pressure;Samples;Min_cycle;Max_cycle;Signal;HPM_P1;HPM_P2
2021/07/15 00:00:46;;;;;;;0.43;0.43;;;;;;;;;;5042665;28;20027;-83
2021/07/15 00:03:18;;;;;;;0.50;0.40;;;;;;;;;;5047889;28;20429;-83
2021/07/15 00:05:44;;;;;;;0.30;0.30;;;;;;;;;;5044213;28;20025;-83
2021/07/15 00:08:11;;;;;;;0.47;0.47;;;;;;;;;;5046638;28;20025;-83
2021/07/15 00:10:39;;;;;;;1.65;0.60;;;;;;;;;;5039973;28;20043;-83
2021/07/15 00:13:06;;;;;;;1.10;0.45;;;;;;;;;;5045445;28;20392;-82
2021/07/15 00:15:35;;;;;;;0.50;0.50;;;;;;;;;;5041641;28;20037;-83
2021/07/15 00:18:00;;;;;;;0.85;0.50;;;;;;;;;;5041973;28;20084;-83
2021/07/15 00:20:26;;;;;;;1.25;0.40;;;;;;;;;;5047805;28;20481;-82
2021/07/15 00:22:52;;;;;;;0.50;0.50;;;;;;;;;;5040813;28;20035;-82
2021/07/15 00:25:20;;;;;;;0.40;0.40;;;;;;;;;;5045955;28;20540;-83
2021/07/15 00:27:46;;;;;;;0.30;0.30;;;;;;;;;;5041089;28;20029;-82
2021/07/15 00:30:13;;;;;;;1.27;0.40;;;;;;;;;;5048997;28;20024;-83
2021/07/15 00:32:40;;;;;;;1.65;0.50;;;;;;;;;;5041775;28;20044;-83
2021/07/15 00:35:07;;;;;;;0.40;0.40;;;;;;;;;;5040929;28;20048;-83
2021/07/15 00:37:32;;;;;;;2.92;0.38;;;;;;;;;;5043660;28;20025;-83
2021/07/15 00:39:58;;;;;;;0.30;0.30;;;;;;;;;;5042498;28;20492;-83
2021/07/15 00:42:23;;;;;;;0.85;0.30;;;;;;;;;;5040818;28;20037;-83
2021/07/15 00:44:49;;;;;;;0.70;0.60;;;;;;;;;;5048937;28;20434;-84
2021/07/15 00:47:14;;;;;;;0.60;0.60;;;;;;;;;;5047143;28;20029;-83
2021/07/15 00:49:40;;;;;;;0.52;0.52;;;;;;;;;;5047235;28;20678;-83
2021/07/15 00:52:11;;;;;;;0.43;0.35;;;;;;;;;;5038880;28;20021;-83
2021/07/15 00:54:39;;;;;;;0.85;0.40;;;;;;;;;;5043792;28;20048;-84
2021/07/15 00:57:04;;;;;;;0.65;0.45;;;;;;;;;;5046140;28;20388;-83
2021/07/15 00:59:30;;;;;;;0.63;0.60;;;;;;;;;;5045253;28;20029;-83
2021/07/15 01:01:55;;;;;;;0.40;0.40;;;;;;;;;;5044283;28;20021;-83
2021/07/15 01:04:21;;;;;;;0.60;0.40;;;;;;;;;;5048102;28;20029;-83
2021/07/15 01:06:46;;;;;;;0.40;0.40;;;;;;;;;;5047318;28;20516;-83
2021/07/15 01:09:11;;;;;;;0.30;0.30;;;;;;;;;;5047517;28;20029;-82
2021/07/15 01:12:16;;;;;;;0.65;0.30;;;;;;;;;;5047656;28;20143;-83
2021/07/15 01:15:04;;;;;;;0.50;0.47;;;;;;;;;;5034925;28;20037;-83
2021/07/15 01:17:36;;;;;;;0.30;0.30;;;;;;;;;;5038354;28;20048;-82
2021/07/15 01:20:39;;;;;;;0.40;0.40;;;;;;;;;;5041736;28;20028;-83
2021/07/15 01:23:24;;;;;;;0.30;0.30;;;;;;;;;;5060696;28;20033;-84
2021/07/15 01:26:07;;;;;;;0.65;0.40;;;;;;;;;;5042227;28;20017;-84
2021/07/15 01:29:37;;;;;;;0.40;0.40;;;;;;;;;;5046914;28;20026;-84
2021/07/15 01:32:06;;;;;;;0.73;0.45;;;;;;;;;;5048770;28;20162;-84
2021/07/15 01:34:34;;;;;;;0.88;0.40;;;;;;;;;;5048569;28;20067;-84
2021/07/15 01:37:00;;;;;;;0.30;0.30;;;;;;;;;;5047639;28;20020;-84
2021/07/15 01:39:30;;;;;;;0.30;0.30;;;;;;;;;;5047976;28;20032;-84
2021/07/15 01:42:03;;;;;;;0.30;0.30;;;;;;;;;;5047050;28;20032;-84
2021/07/15 01:44:30;;;;;;;0.43;0.40;;;;;;;;;;5050489;28;20405;-84
2021/07/15 01:46:56;;;;;;;0.30;0.30;;;;;;;;;;5051315;28;20025;-84
2021/07/15 01:49:24;;;;;;;1.05;0.40;;;;;;;;;;5040101;28;20025;-84
2021/07/15 01:51:53;;;;;;;0.40;0.40;;;;;;;;;;5052356;28;20044;-84
2021/07/15 01:54:19;;;;;;;1.10;0.25;;;;;;;;;;5049507;28;20029;-84
2021/07/15 01:56:47;;;;;;;0.30;0.30;;;;;;;;;;5045575;28;20028;-85
2021/07/15 01:59:17;;;;;;;1.48;0.50;;;;;;;;;;5048831;28;20070;-84
2021/07/15 02:01:46;;;;;;;0.40;0.40;;;;;;;;;;5048811;28;20048;-84
2021/07/15 02:04:14;;;;;;;0.33;0.33;;;;;;;;;;5048906;28;20025;-84
2021/07/15 02:06:42;;;;;;;0.30;0.30;;;;;;;;;;5049676;28;20029;-84
2021/07/15 02:09:09;;;;;;;1.33;0.40;;;;;;;;;;5041229;28;20021;-84
2021/07/15 02:11:36;;;;;;;0.57;0.30;;;;;;;;;;5041309;28;20135;-84
2021/07/15 02:14:07;;;;;;;0.40;0.40;;;;;;;;;;5049282;28;20033;-84
2021/07/15 02:16:36;;;;;;;0.30;0.30;;;;;;;;;;5044160;28;20029;-84
2021/07/15 02:19:03;;;;;;;0.40;0.40;;;;;;;;;;5047833;28;20032;-84
2021/07/15 02:21:31;;;;;;;0.40;0.40;;;;;;;;;;5041776;28;20055;-84
2021/07/15 02:23:57;;;;;;;0.40;0.40;;;;;;;;;;5047156;28;20032;-84
2021/07/15 02:26:25;;;;;;;2.20;0.50;;;;;;;;;;5045895;28;20398;-85
2021/07/15 02:28:51;;;;;;;0.30;0.30;;;;;;;;;;5048322;28;20445;-85
2021/07/15 02:31:21;;;;;;;1.20;0.40;;;;;;;;;;5045185;28;20047;-84
2021/07/15 02:33:52;;;;;;;;;;;;;;;;;;5048671;28;20020;-84
2021/07/15 02:36:20;;;;;;;0.45;0.30;;;;;;;;;;5048593;28;20608;-84
2021/07/15 02:38:48;;;;;;;0.47;0.28;;;;;;;;;;5044062;28;20051;-84
2021/07/15 02:41:14;;;;;;;0.30;0.30;;;;;;;;;;5045534;28;20044;-84
2021/07/15 02:43:40;;;;;;;0.30;0.30;;;;;;;;;;5047115;28;20029;-84
2021/07/15 02:46:06;;;;;;;0.30;0.30;;;;;;;;;;5047212;28;20029;-84
2021/07/15 02:48:31;;;;;;;0.30;0.30;;;;;;;;;;5046534;28;20029;-84
2021/07/15 02:50:57;;;;;;;0.98;0.30;;;;;;;;;;5042513;28;20025;-84
2021/07/15 02:53:22;;;;;;;0.50;0.40;;;;;;;;;;5046612;28;20024;-84
2021/07/15 02:56:09;;;;;;;0.30;0.30;;;;;;;;;;5041390;28;20029;-84
2021/07/15 02:58:41;;;;;;;0.32;0.30;;;;;;;;;;5043426;28;20048;-84
2021/07/15 03:01:13;;;;;;;3.33;0.40;;;;;;;;;;5042126;28;20029;-84
2021/07/15 03:04:00;;;;;;;0.30;0.30;;;;;;;;;;5046890;28;20033;-84
2021/07/15 03:06:34;;;;;;;0.30;0.30;;;;;;;;;;5047427;28;20031;-84
2021/07/15 03:09:03;;;;;;;0.82;0.35;;;;;;;;;;5043835;28;20040;-84
2021/07/15 03:11:45;;;;;;;1.05;0.50;;;;;;;;;;5047761;28;20059;-84
2021/07/15 03:14:12;;;;;;;2.30;0.70;;;;;;;;;;5050606;28;20061;-84
2021/07/15 03:16:39;;;;;;;0.50;0.50;;;;;;;;;;5046697;28;20480;-84
2021/07/15 03:19:07;;;;;;;1.60;0.70;;;;;;;;;;5049426;28;20035;-84
2021/07/15 03:21:33;;;;;;;0.80;0.70;;;;;;;;;;5041360;28;20021;-84
2021/07/15 03:24:01;;;;;;;2.65;0.52;;;;;;;;;;5043519;28;20147;-84
2021/07/15 03:26:26;;;;;;;0.40;0.40;;;;;;;;;;5046627;28;20044;-84
2021/07/15 03:28:53;;;;;;;1.38;0.40;;;;;;;;;;5047200;28;20518;-84
2021/07/15 03:31:21;;;;;;;0.30;0.30;;;;;;;;;;5044186;28;20139;-84
2021/07/15 03:33:50;;;;;;;0.30;0.30;;;;;;;;;;5044165;28;20022;-84
2021/07/15 03:36:16;;;;;;;0.40;0.40;;;;;;;;;;5045855;28;20033;-84
2021/07/15 03:38:42;;;;;;;0.50;0.50;;;;;;;;;;5048383;28;20294;-84
2021/07/15 03:41:10;;;;;;;0.93;0.40;;;;;;;;;;5042869;28;20021;-84
2021/07/15 03:43:36;;;;;;;0.40;0.40;;;;;;;;;;5046404;28;20028;-84
2021/07/15 03:46:03;;;;;;;1.90;1.08;;;;;;;;;;5049353;28;20177;-84
2021/07/15 03:48:29;;;;;;;3.65;2.55;;;;;;;;;;5047187;28;20029;-84
2021/07/15 03:51:07;;;;;;;1.67;1.10;;;;;;;;;;5042342;28;20275;-84
2021/07/15 03:53:36;;;;;;;1.30;0.50;;;;;;;;;;5042450;28;20021;-84
2021/07/15 03:56:03;;;;;;;0.50;0.40;;;;;;;;;;5049359;28;20021;-83
2021/07/15 03:58:30;;;;;;;0.93;0.50;;;;;;;;;;5042522;28;20032;-83
2021/07/15 04:00:59;;;;;;;0.38;0.38;;;;;;;;;;5044648;28;20079;-83
2021/07/15 04:03:26;;;;;;;1.52;0.77;;;;;;;;;;5046528;28;20527;-83
2021/07/15 04:05:52;;;;;;;3.03;1.70;;;;;;;;;;5042454;28;20039;-83
2021/07/15 04:08:20;;;;;;;1.05;0.70;;;;;;;;;;5041208;28;20032;-84
2021/07/15 04:10:48;;;;;;;0.50;0.50;;;;;;;;;;5047271;28;20084;-84
2021/07/15 04:13:16;;;;;;;1.10;0.40;;;;;;;;;;5045401;28;20040;-84
2021/07/15 04:15:47;;;;;;;3.90;0.70;;;;;;;;;;5043910;28;20034;-84
2021/07/15 04:18:14;;;;;;;0.47;0.47;;;;;;;;;;5046641;28;20029;-84
2021/07/15 04:20:41;;;;;;;0.50;0.50;;;;;;;;;;5041010;28;20020;-84
2021/07/15 04:23:07;;;;;;;0.93;0.82;;;;;;;;;;5046281;28;20036;-84
2021/07/15 04:25:35;;;;;;;1.73;0.90;;;;;;;;;;5044767;28;20504;-84
2021/07/15 04:28:03;;;;;;;0.52;0.52;;;;;;;;;;5042722;28;20017;-85
2021/07/15 04:30:29;;;;;;;0.90;0.50;;;;;;;;;;5041631;28;20032;-83
2021/07/15 04:33:08;;;;;;;2.22;0.40;;;;;;;;;;5041482;28;20033;-85
2021/07/15 04:35:34;;;;;;;0.52;0.52;;;;;;;;;;5045549;28;20432;-83
2021/07/15 04:38:01;;;;;;;2.63;0.45;;;;;;;;;;5042565;28;20473;-84
2021/07/15 04:40:28;;;;;;;2.03;1.30;;;;;;;;;;5041525;28;20099;-83
2021/07/15 04:43:13;;;;;;;1.48;1.02;;;;;;;;;;5042333;28;20031;-83
2021/07/15 04:45:40;;;;;;;0.85;0.60;;;;;;;;;;5044153;28;20622;-85
2021/07/15 04:48:07;;;;;;;0.77;0.70;;;;;;;;;;5043786;28;20056;-84
2021/07/15 04:50:35;;;;;;;1.48;0.60;;;;;;;;;;5040989;28;20331;-83
2021/07/15 04:53:09;;;;;;;1.33;0.70;;;;;;;;;;5041562;28;20087;-84
2021/07/15 04:55:35;;;;;;;0.65;0.55;;;;;;;;;;5047533;28;20024;-83
2021/07/15 04:58:03;;;;;;;1.63;0.60;;;;;;;;;;5041974;28;20686;-83
2021/07/15 05:00:29;;;;;;;0.60;0.40;;;;;;;;;;5041634;28;20017;-83
2021/07/15 05:03:09;;;;;;;0.52;0.52;;;;;;;;;;5048753;28;20033;-85
2021/07/15 05:05:37;;;;;;;0.52;0.50;;;;;;;;;;5040748;28;20021;-81
2021/07/15 05:08:03;;;;;;;0.50;0.50;;;;;;;;;;5049363;28;20024;-85
2021/07/15 05:10:29;;;;;;;1.00;0.90;;;;;;;;;;5049980;28;20025;-85
2021/07/15 05:12:54;;;;;;;6.40;3.40;;;;;;;;;;5051002;28;20480;-85
2021/07/15 05:15:19;;;;;;;2.55;1.48;;;;;;;;;;5043529;28;20115;-85
2021/07/15 05:17:45;;;;;;;2.13;0.90;;;;;;;;;;5051497;28;20176;-85
2021/07/15 05:20:12;;;;;;;1.55;0.70;;;;;;;;;;5052323;28;20084;-85
2021/07/15 05:22:38;;;;;;;0.50;0.50;;;;;;;;;;5045324;28;20520;-85
2021/07/15 05:25:06;;;;;;;1.98;1.70;;;;;;;;;;5052387;28;20477;-86
2021/07/15 05:27:32;;;;;;;2.40;1.80;;;;;;;;;;5050953;28;20024;-86
2021/07/15 05:29:57;;;;;;;1.77;1.10;;;;;;;;;;5044571;28;20424;-86
2021/07/15 05:32:23;;;;;;;1.92;1.20;;;;;;;;;;5049410;28;20067;-86
2021/07/15 05:34:48;;;;;;;1.13;0.77;;;;;;;;;;5049656;28;20047;-85
2021/07/15 05:37:14;;;;;;;0.60;0.60;;;;;;;;;;5048456;28;20048;-84
2021/07/15 05:39:43;;;;;;;0.77;0.57;;;;;;;;;;5050411;28;20658;-85
2021/07/15 05:42:09;;;;;;;2.25;0.70;;;;;;;;;;5050585;28;20028;-86
2021/07/15 05:44:35;;;;;;;0.85;0.70;;;;;;;;;;5049660;28;20029;-85
2021/07/15 05:47:00;;;;;;;0.75;0.70;;;;;;;;;;5047720;28;20041;-86
2021/07/15 05:49:25;;;;;;;0.50;0.50;;;;;;;;;;5049559;28;20057;-82
2021/07/15 05:51:51;;;;;;;0.45;0.45;;;;;;;;;;5045017;28;20028;-82
2021/07/15 05:54:16;;;;;;;2.60;1.20;;;;;;;;;;5042148;28;20029;-82
2021/07/15 05:56:42;;;;;;;4.03;2.33;;;;;;;;;;5041433;28;20025;-81
2021/07/15 05:59:08;;;;;;;2.28;1.50;;;;;;;;;;5038154;28;20580;-81
2021/07/15 06:01:33;;;;;;;0.90;0.90;;;;;;;;;;5046056;28;20048;-81
2021/07/15 06:03:59;;;;;;;1.83;1.60;;;;;;;;;;5050713;28;20055;-81
2021/07/15 06:06:24;;;;;;;0.60;0.60;;;;;;;;;;5045511;28;20472;-81
2021/07/15 06:08:52;;;;;;;0.60;0.60;;;;;;;;;;5040469;28;20033;-81
2021/07/15 06:11:17;;;;;;;1.17;1.00;;;;;;;;;;5046379;28;20539;-82
2021/07/15 06:13:43;;;;;;;1.48;0.80;;;;;;;;;;5040741;28;20378;-82
2021/07/15 06:16:09;;;;;;;0.60;0.60;;;;;;;;;;5051709;28;20032;-82
2021/07/15 06:18:34;;;;;;;1.67;0.90;;;;;;;;;;5039396;28;20025;-83
2021/07/15 06:21:00;;;;;;;2.40;0.68;;;;;;;;;;5043317;28;20025;-83
2021/07/15 06:23:25;;;;;;;0.50;0.50;;;;;;;;;;5046596;28;20032;-82
2021/07/15 06:25:51;;;;;;;1.20;0.57;;;;;;;;;;5044153;28;20513;-83
2021/07/15 06:28:16;;;;;;;1.23;0.70;;;;;;;;;;5062297;28;20029;-83
2021/07/15 06:30:42;;;;;;;0.47;0.47;;;;;;;;;;5051655;28;20029;-82
2021/07/15 06:33:07;;;;;;;0.43;0.43;;;;;;;;;;5048617;28;20025;-83
2021/07/15 06:35:40;;;;;;;0.63;0.40;;;;;;;;;;5044169;28;20056;-82
2021/07/15 06:38:05;;;;;;;0.82;0.40;;;;;;;;;;5041314;28;20061;-83
2021/07/15 06:40:31;;;;;;;0.95;0.55;;;;;;;;;;5046517;28;20059;-83
2021/07/15 06:42:56;;;;;;;0.60;0.60;;;;;;;;;;5048352;28;20024;-82
2021/07/15 06:45:22;;;;;;;1.00;1.00;;;;;;;;;;5041821;28;20033;-82
2021/07/15 06:47:47;;;;;;;1.23;0.60;;;;;;;;;;5047081;28;20066;-82
2021/07/15 06:50:15;;;;;;;0.55;0.55;;;;;;;;;;5046597;28;20113;-82
2021/07/15 06:52:41;;;;;;;0.50;0.50;;;;;;;;;;5046233;28;20052;-83
2021/07/15 06:55:08;;;;;;;0.50;0.50;;;;;;;;;;5048508;28;20112;-82
2021/07/15 06:57:34;;;;;;;1.60;0.60;;;;;;;;;;5045992;28;20151;-82
2021/07/15 07:00:00;;;;;;;1.60;0.60;;;;;;;;;;5048635;28;20048;-82
2021/07/15 07:02:26;;;;;;;1.13;0.60;;;;;;;;;;5046215;28;20116;-81
2021/07/15 07:04:52;;;;;;;0.47;0.45;;;;;;;;;;5051003;28;21122;-82
2021/07/15 07:07:17;;;;;;;2.72;0.50;;;;;;;;;;5048624;28;20029;-83
2021/07/15 07:09:43;;;;;;;0.50;0.50;;;;;;;;;;5043480;28;20385;-83
2021/07/15 07:12:08;;;;;;;1.05;0.85;;;;;;;;;;5047974;28;20024;-83
2021/07/15 07:14:34;;;;;;;0.95;0.73;;;;;;;;;;5047230;28;20466;-82
2021/07/15 07:17:00;;;;;;;2.13;1.40;;;;;;;;;;5049396;28;20056;-82
2021/07/15 07:19:25;;;;;;;0.90;0.90;;;;;;;;;;5043625;28;20091;-82
2021/07/15 07:21:51;;;;;;;1.45;0.60;;;;;;;;;;5045383;28;20029;-83
2021/07/15 07:24:16;;;;;;;0.57;0.40;;;;;;;;;;5040724;28;20029;-83
2021/07/15 07:26:42;;;;;;;0.50;0.50;;;;;;;;;;5048765;28;20120;-83
2021/07/15 07:29:07;;;;;;;0.40;0.40;;;;;;;;;;5049656;28;20029;-82
2021/07/15 07:31:33;;;;;;;1.00;0.50;;;;;;;;;;5045406;28;20021;-83
2021/07/15 07:33:59;;;;;;;0.57;0.57;;;;;;;;;;5044082;28;20029;-82
2021/07/15 07:36:25;;;;;;;1.75;0.70;;;;;;;;;;5048756;28;20029;-81
2021/07/15 07:38:50;;;;;;;0.70;0.70;;;;;;;;;;5044317;28;20028;-82
2021/07/15 07:41:16;;;;;;;0.50;0.50;;;;;;;;;;5043988;28;20203;-82
2021/07/15 07:43:41;;;;;;;0.55;0.55;;;;;;;;;;5046624;28;20448;-82
2021/07/15 07:46:07;;;;;;;1.60;1.20;;;;;;;;;;5048741;28;20025;-82
2021/07/15 07:48:32;;;;;;;1.00;0.70;;;;;;;;;;5050292;28;20480;-82
2021/07/15 07:50:58;;;;;;;0.60;0.60;;;;;;;;;;5047971;28;20406;-83
2021/07/15 07:53:28;;;;;;;0.50;0.50;;;;;;;;;;5046732;28;20043;-83
2021/07/15 07:55:53;;;;;;;1.05;0.70;;;;;;;;;;5049746;28;20484;-83
2021/07/15 07:58:20;;;;;;;0.68;0.68;;;;;;;;;;5047968;28;20072;-82
2021/07/15 08:00:46;;;;;;;1.35;0.90;;;;;;;;;;5042360;28;20114;-82
2021/07/15 08:03:12;;;;;;;1.17;0.65;;;;;;;;;;5046386;28;20039;-81
2021/07/15 08:05:40;;;;;;;0.88;0.88;;;;;;;;;;5044725;28;20025;-82
2021/07/15 08:08:07;;;;;;;0.80;0.80;;;;;;;;;;5044090;28;20037;-81
2021/07/15 08:10:32;;;;;;;0.60;0.60;;;;;;;;;;5046421;28;20508;-81
2021/07/15 08:12:58;;;;;;;0.60;0.60;;;;;;;;;;5044589;28;20037;-82
2021/07/15 08:15:24;;;;;;;0.70;0.70;;;;;;;;;;5042727;28;20039;-81
2021/07/15 08:17:49;;;;;;;1.10;0.70;;;;;;;;;;5047706;28;20025;-82
2021/07/15 08:20:15;;;;;;;0.60;0.60;;;;;;;;;;5048037;28;20029;-81
2021/07/15 08:22:41;;;;;;;0.70;0.70;;;;;;;;;;5040624;28;20334;-81
2021/07/15 08:25:07;;;;;;;0.82;0.70;;;;;;;;;;5045150;28;20025;-81
2021/07/15 08:27:34;;;;;;;0.80;0.80;;;;;;;;;;5046772;28;20025;-81
2021/07/15 08:29:59;;;;;;;2.13;0.95;;;;;;;;;;5043166;28;20090;-81
2021/07/15 08:32:25;;;;;;;1.45;0.65;;;;;;;;;;5046126;28;20028;-82
2021/07/15 08:34:51;;;;;;;1.30;0.70;;;;;;;;;;5035255;28;20114;-81
2021/07/15 08:37:16;;;;;;;0.90;0.85;;;;;;;;;;5045143;28;20024;-82
2021/07/15 08:39:42;;;;;;;0.90;0.80;;;;;;;;;;5045067;28;20036;-82
2021/07/15 08:42:08;;;;;;;0.77;0.70;;;;;;;;;;5046960;28;20044;-82
2021/07/15 08:44:34;;;;;;;0.93;0.70;;;;;;;;;;5045730;28;20021;-82
2021/07/15 08:47:01;;;;;;;0.70;0.70;;;;;;;;;;5046263;28;20262;-81
2021/07/15 08:49:27;;;;;;;1.27;0.60;;;;;;;;;;5046513;28;20028;-81
2021/07/15 08:51:53;;;;;;;1.85;0.70;;;;;;;;;;5047214;28;20021;-82
2021/07/15 08:54:18;;;;;;;1.80;0.50;;;;;;;;;;5051699;28;20063;-82
2021/07/15 08:56:47;;;;;;;0.85;0.50;;;;;;;;;;5048847;28;20036;-81
2021/07/15 08:59:15;;;;;;;0.98;0.60;;;;;;;;;;5046267;28;20044;-82
2021/07/15 09:01:47;;;;;;;3.10;2.20;;;;;;;;;;5042236;28;20082;-82
2021/07/15 09:04:13;;;;;;;0.80;0.80;;;;;;;;;;5045709;28;20115;-82
2021/07/15 09:06:42;;;;;;;0.45;0.45;;;;;;;;;;5044117;28;20476;-81
2021/07/15 09:09:08;;;;;;;1.35;0.40;;;;;;;;;;5060706;28;20049;-82
2021/07/15 09:11:34;;;;;;;0.82;0.55;;;;;;;;;;5045924;28;20040;-81
2021/07/15 09:13:59;;;;;;;2.45;0.52;;;;;;;;;;5044719;28;20120;-82
2021/07/15 09:16:25;;;;;;;0.50;0.50;;;;;;;;;;5046615;28;20031;-82
2021/07/15 09:18:56;;;;;;;0.73;0.60;;;;;;;;;;5043281;28;20112;-82
2021/07/15 09:21:25;;;;;;;1.30;1.20;;;;;;;;;;5045976;28;20124;-82
2021/07/15 09:23:50;;;;;;;1.00;0.80;;;;;;;;;;5045897;28;20287;-81
2021/07/15 09:26:16;;;;;;;0.77;0.50;;;;;;;;;;5047888;28;20452;-82
2021/07/15 09:28:41;;;;;;;0.80;0.70;;;;;;;;;;5044113;28;20449;-81
2021/07/15 09:31:19;;;;;;;1.77;0.70;;;;;;;;;;5040345;28;20032;-80
2021/07/15 09:33:46;;;;;;;3.92;0.90;;;;;;;;;;5041098;28;20150;-81
2021/07/15 09:36:16;;;;;;;0.70;0.60;;;;;;;;;;5042537;28;20055;-81
2021/07/15 09:38:43;;;;;;;0.85;0.68;;;;;;;;;;5044679;28;20033;-80
2021/07/15 09:41:08;;;;;;;0.88;0.55;;;;;;;;;;5045942;28;20028;-82
2021/07/15 09:43:38;;;;;;;1.58;0.70;;;;;;;;;;5045255;28;20439;-82
2021/07/15 09:46:13;;;;;;;0.85;0.60;;;;;;;;;;5046153;28;20082;-82
2021/07/15 09:48:40;;;;;;;2.05;0.88;;;;;;;;;;5044497;28;20025;-82
2021/07/15 09:51:09;;;;;;;0.50;0.50;;;;;;;;;;5041723;28;20087;-82
2021/07/15 09:53:36;;;;;;;0.75;0.50;;;;;;;;;;5045210;28;20459;-82
2021/07/15 09:56:09;;;;;;;0.98;0.60;;;;;;;;;;5049994;28;20048;-81
2021/07/15 09:58:49;;;;;;;0.70;0.70;;;;;;;;;;5047820;28;20025;-81
2021/07/15 10:01:20;;;;;;;0.60;0.60;;;;;;;;;;5043765;28;20021;-82
2021/07/15 10:03:51;;;;;;;0.70;0.70;;;;;;;;;;5046061;28;20029;-80
2021/07/15 10:06:18;;;;;;;0.60;0.60;;;;;;;;;;5047446;28;20055;-81
2021/07/15 10:08:51;;;;;;;1.98;0.60;;;;;;;;;;5046542;28;20176;-83
2021/07/15 10:11:30;;;;;;;0.85;0.55;;;;;;;;;;5050629;28;20453;-82
2021/07/15 10:14:07;;;;;;;0.70;0.70;;;;;;;;;;5046799;28;20374;-82
2021/07/15 10:16:35;;;;;;;1.20;0.70;;;;;;;;;;5054783;28;20449;-80
2021/07/15 10:19:01;;;;;;;0.60;0.60;;;;;;;;;;5044357;28;20116;-82
2021/07/15 10:21:29;;;;;;;2.90;0.70;;;;;;;;;;5040242;28;20102;-82
2021/07/15 10:23:56;;;;;;;0.98;0.70;;;;;;;;;;5052089;28;20020;-82
2021/07/15 10:26:22;;;;;;;1.48;0.80;;;;;;;;;;5046683;28;20397;-82
2021/07/15 10:28:50;;;;;;;1.30;0.60;;;;;;;;;;5042788;28;20166;-80
2021/07/15 10:31:17;;;;;;;0.77;0.60;;;;;;;;;;5045800;28;20098;-82
2021/07/15 10:33:44;;;;;;;0.75;0.60;;;;;;;;;;5042199;28;20393;-81
2021/07/15 10:36:10;;;;;;;0.93;0.90;;;;;;;;;;5050116;28;20029;-81
2021/07/15 10:38:45;;;;;;;1.95;0.70;;;;;;;;;;5047833;28;20028;-80
2021/07/15 10:41:11;;;;;;;0.60;0.60;;;;;;;;;;5041383;28;20040;-81
2021/07/15 10:43:38;;;;;;;0.50;0.50;;;;;;;;;;5046035;28;20056;-81
2021/07/15 10:46:06;;;;;;;1.60;0.70;;;;;;;;;;5042706;28;20108;-80
2021/07/15 10:48:34;;;;;;;0.60;0.60;;;;;;;;;;5045871;28;20543;-80
2021/07/15 10:51:01;;;;;;;1.30;0.60;;;;;;;;;;5044825;28;20033;-80
2021/07/15 10:53:29;;;;;;;0.60;0.60;;;;;;;;;;5034504;28;20481;-81
2021/07/15 10:55:55;;;;;;;0.43;0.43;;;;;;;;;;5040426;28;20036;-81
2021/07/15 10:58:49;;;;;;;1.55;0.68;;;;;;;;;;5034429;28;20017;-81
2021/07/15 11:01:36;;;;;;;0.50;0.50;;;;;;;;;;5046456;28;20028;-80
2021/07/15 11:04:13;;;;;;;0.85;0.50;;;;;;;;;;5038565;28;20029;-81
2021/07/15 11:06:46;;;;;;;1.00;0.57;;;;;;;;;;5032455;28;20119;-81
2021/07/15 11:09:28;;;;;;;0.45;0.45;;;;;;;;;;5040285;28;20052;-81
2021/07/15 11:11:54;;;;;;;0.85;0.68;;;;;;;;;;5040208;28;20017;-81
2021/07/15 11:14:43;;;;;;;0.75;0.50;;;;;;;;;;5044895;28;20025;-80
2021/07/15 11:17:20;;;;;;;0.85;0.68;;;;;;;;;;5042089;28;20374;-81
2021/07/15 11:20:09;;;;;;;3.78;1.60;;;;;;;;;;5043800;28;20056;-81
2021/07/15 11:22:55;;;;;;;0.95;0.75;;;;;;;;;;5044373;28;20040;-82
2021/07/15 11:25:27;;;;;;;6.93;1.00;;;;;;;;;;5037789;28;20029;-81
2021/07/15 11:27:54;;;;;;;8.13;1.10;;;;;;;;;;5034430;28;20493;-81
2021/07/15 11:30:32;;;;;;;6.15;1.00;;;;;;;;;;5044766;28;20103;-81
2021/07/15 11:33:21;;;;;;;1.83;0.63;;;;;;;;;;5044011;28;22639;-82
2021/07/15 11:36:09;;;;;;;3.65;0.80;;;;;;;;;;5032316;28;20483;-82
2021/07/15 11:38:36;;;;;;;0.55;0.50;;;;;;;;;;5062600;28;20029;-82
2021/07/15 11:41:05;;;;;;;1.08;0.60;;;;;;;;;;5058435;28;20039;-83
2021/07/15 11:43:34;;;;;;;1.20;0.60;;;;;;;;;;5061228;28;20029;-82
2021/07/15 11:46:10;;;;;;;6.53;0.70;;;;;;;;;;5042122;28;20087;-81
2021/07/15 11:48:47;;;;;;;2.42;0.60;;;;;;;;;;5040632;28;20029;-81
2021/07/15 11:51:26;;;;;;;2.25;1.23;;;;;;;;;;5042704;28;20040;-81
2021/07/15 11:54:24;;;;;;;0.90;0.77;;;;;;;;;;5036480;28;20047;-81
2021/07/15 11:56:59;;;;;;;0.77;0.70;;;;;;;;;;5038252;28;20144;-80
2021/07/15 11:59:31;;;;;;;0.73;0.52;;;;;;;;;;5044311;28;21125;-82
2021/07/15 12:02:09;;;;;;;1.27;0.60;;;;;;;;;;5046874;28;20046;-83
2021/07/15 12:05:05;;;;;;;0.75;0.60;;;;;;;;;;5040034;28;20079;-83
2021/07/15 12:07:31;;;;;;;0.88;0.65;;;;;;;;;;5038848;28;20449;-83
2021/07/15 12:09:57;;;;;;;0.80;0.75;;;;;;;;;;5039759;28;20116;-82
2021/07/15 12:12:22;;;;;;;0.73;0.60;;;;;;;;;;5040256;28;20029;-83
2021/07/15 12:14:52;;;;;;;1.48;0.80;;;;;;;;;;5038621;28;20377;-83
2021/07/15 12:17:19;;;;;;;1.15;0.93;;;;;;;;;;5038921;28;20115;-82
2021/07/15 12:19:57;;;;;;;1.25;0.98;;;;;;;;;;5042860;28;20029;-82
2021/07/15 12:22:23;;;;;;;0.70;0.68;;;;;;;;;;5040170;28;20020;-83
2021/07/15 12:25:05;;;;;;;1.02;0.65;;;;;;;;;;5044727;28;20456;-83
2021/07/15 12:27:39;;;;;;;1.77;0.90;;;;;;;;;;5034606;28;20520;-82
2021/07/15 12:30:05;;;;;;;1.98;0.80;;;;;;;;;;5043451;28;20094;-79
2021/07/15 12:32:30;;;;;;;2.58;0.63;;;;;;;;;;5042200;28;20061;-81
2021/07/15 12:34:56;;;;;;;1.10;0.70;;;;;;;;;;5036310;28;20060;-81
2021/07/15 12:37:21;;;;;;;1.27;0.73;;;;;;;;;;5046646;28;20079;-81
2021/07/15 12:39:57;;;;;;;2.25;0.80;;;;;;;;;;5036050;28;20024;-80
2021/07/15 12:42:23;;;;;;;0.98;0.88;;;;;;;;;;5030391;28;20028;-81
2021/07/15 12:44:48;;;;;;;3.15;0.90;;;;;;;;;;5038820;28;20025;-80
2021/07/15 12:47:14;;;;;;;1.67;0.93;;;;;;;;;;5031410;28;20025;-80
2021/07/15 12:49:39;;;;;;;2.15;0.80;;;;;;;;;;5044152;28;20496;-80
2021/07/15 12:52:05;;;;;;;1.73;0.80;;;;;;;;;;5040253;28;20039;-84
2021/07/15 12:54:35;;;;;;;1.33;0.70;;;;;;;;;;5039937;28;20147;-81
2021/07/15 12:57:03;;;;;;;0.80;0.60;;;;;;;;;;5038514;28;20548;-81
2021/07/15 12:59:29;;;;;;;1.42;0.70;;;;;;;;;;5045714;28;20037;-81
2021/07/15 13:01:55;;;;;;;1.55;0.70;;;;;;;;;;5035764;28;20028;-79
2021/07/15 13:04:24;;;;;;;2.20;0.80;;;;;;;;;;5038362;28;20068;-78
2021/07/15 13:06:55;;;;;;;1.95;0.70;;;;;;;;;;5036709;28;20481;-79
2021/07/15 13:09:51;;;;;;;0.98;0.52;;;;;;;;;;5059890;28;20052;-78
2021/07/15 13:15:09;;;;;;;3.90;0.70;;;;;;;;;;5037615;28;20075;-77
2021/07/15 13:17:39;;;;;;;0.82;0.60;;;;;;;;;;5043241;28;20060;-77
2021/07/15 13:20:23;;;;;;;0.93;0.60;;;;;;;;;;5039237;28;20048;-79
2021/07/15 13:22:54;;;;;;;1.20;0.80;;;;;;;;;;5038187;28;20029;-77
2021/07/15 13:25:25;;;;;;;1.60;0.60;;;;;;;;;;5048505;28;20082;-78
2021/07/15 13:27:52;;;;;;;1.55;0.90;;;;;;;;;;5045570;28;20443;-79
2021/07/15 13:30:23;;;;;;;2.53;0.90;;;;;;;;;;5039170;28;20120;-79
2021/07/15 13:32:49;;;;;;;2.25;0.82;;;;;;;;;;5046021;28;20029;-79
2021/07/15 13:35:17;;;;;;;1.67;0.70;;;;;;;;;;5052022;28;20032;-79
2021/07/15 13:37:46;;;;;;;1.38;0.70;;;;;;;;;;5045628;28;20657;-77
2021/07/15 13:40:24;;;;;;;1.00;0.90;;;;;;;;;;5040321;28;20033;-78
2021/07/15 13:43:01;;;;;;;1.73;0.97;;;;;;;;;;5041594;28;20033;-78
2021/07/15 13:45:26;;;;;;;3.15;1.30;;;;;;;;;;5042150;28;20826;-79
2021/07/15 13:47:52;;;;;;;2.95;1.02;;;;;;;;;;5044054;28;20166;-78
2021/07/15 13:50:18;;;;;;;3.38;1.17;;;;;;;;;;5045721;28;20024;-79
2021/07/15 13:52:44;;;;;;;2.25;1.27;;;;;;;;;;5042049;28;20125;-79
2021/07/15 13:55:13;;;;;;;1.60;1.20;;;;;;;;;;5043268;28;20115;-79
2021/07/15 13:57:42;;;;;;;1.92;1.30;;;;;;;;;;5040750;28;20051;-80
2021/07/15 14:00:09;;;;;;;3.22;1.48;;;;;;;;;;5038470;28;20378;-80
2021/07/15 14:02:35;;;;;;;3.55;1.30;;;;;;;;;;5041469;28;20028;-80
2021/07/15 14:05:01;;;;;;;3.92;1.10;;;;;;;;;;5044284;28;20481;-79
2021/07/15 14:07:28;;;;;;;2.85;1.17;;;;;;;;;;5039134;28;20488;-79
2021/07/15 14:10:13;;;;;;;12.48;1.30;;;;;;;;;;5047183;28;20032;-77
2021/07/15 14:12:43;;;;;;;1.42;0.90;;;;;;;;;;5042654;28;20117;-80
2021/07/15 14:15:25;;;;;;;1.80;0.90;;;;;;;;;;5045005;28;20032;-78
2021/07/15 14:18:05;;;;;;;1.00;0.65;;;;;;;;;;5048613;28;20061;-78
2021/07/15 14:20:33;;;;;;;1.17;0.93;;;;;;;;;;5045084;28;20025;-79
2021/07/15 14:22:59;;;;;;;0.80;0.80;;;;;;;;;;5035811;28;20047;-77
2021/07/15 14:25:26;;;;;;;1.23;0.80;;;;;;;;;;5035973;28;20041;-78
2021/07/15 14:27:52;;;;;;;1.45;0.80;;;;;;;;;;5038687;28;20044;-80
2021/07/15 14:30:22;;;;;;;1.15;1.00;;;;;;;;;;5041463;28;20025;-78
2021/07/15 14:32:49;;;;;;;1.75;0.70;;;;;;;;;;5044909;28;20021;-78
2021/07/15 14:35:15;;;;;;;1.02;0.80;;;;;;;;;;5042150;28;20021;-79
2021/07/15 14:37:41;;;;;;;3.00;0.98;;;;;;;;;;5037448;28;20180;-78
2021/07/15 14:40:07;;;;;;;0.73;0.73;;;;;;;;;;5035495;28;20378;-79
2021/07/15 14:42:33;;;;;;;1.08;0.95;;;;;;;;;;5040260;28;20033;-79
2021/07/15 14:44:58;;;;;;;0.75;0.75;;;;;;;;;;5043892;28;20086;-77
2021/07/15 14:47:24;;;;;;;0.90;0.80;;;;;;;;;;5046522;28;20082;-77
2021/07/15 14:49:49;;;;;;;0.93;0.73;;;;;;;;;;5039723;28;20060;-78
2021/07/15 14:52:15;;;;;;;0.80;0.80;;;;;;;;;;5043478;28;20274;-79
2021/07/15 14:54:40;;;;;;;1.08;0.90;;;;;;;;;;5037577;28;20036;-78
2021/07/15 14:57:06;;;;;;;0.70;0.70;;;;;;;;;;5041596;28;20100;-79